createdAt,value
2023-01-10T00:00:11.234Z,98230.84
2023-01-10T00:02:38.794Z,98241.94
2023-01-10T00:05:06.220Z,98225.69
2023-01-10T00:07:33.473Z,98232.91
2023-01-10T00:10:01.112Z,98234.91
2023-01-10T00:12:46.831Z,98234.91
2023-01-10T00:15:14.362Z,98230.41
2023-01-10T00:17:41.576Z,98223.66
2023-01-10T00:20:09.127Z,98219.50
2023-01-10T00:22:36.587Z,98216.47
2023-01-10T00:25:03.992Z,98213.81
2023-01-10T00:27:31.178Z,98207.59
2023-01-10T00:30:01.367Z,98216.31
2023-01-10T00:32:28.582Z,98209.09
2023-01-10T00:34:55.751Z,98201.38
2023-01-10T00:37:23.374Z,98198.00
2023-01-10T00:39:50.574Z,98198.34
2023-01-10T00:42:41.100Z,98203.53
2023-01-10T00:45:08.858Z,98198.50
2023-01-10T00:47:36.050Z,98192.97
2023-01-10T00:50:05.938Z,98204.06
2023-01-10T00:52:33.417Z,98207.38
2023-01-10T00:55:00.687Z,98207.03
2023-01-10T00:57:27.875Z,98198.34
2023-01-10T00:59:55.423Z,98198.00
2023-01-10T01:02:22.704Z,98205.06
2023-01-10T01:04:49.983Z,98200.53
2023-01-10T01:07:17.449Z,98201.66
2023-01-10T01:10:03.223Z,98200.69
2023-01-10T01:12:30.664Z,98204.88
2023-01-10T01:14:58.231Z,98197.16
2023-01-10T01:17:25.387Z,98198.00
2023-01-10T01:19:52.945Z,98200.34
2023-01-10T01:22:20.240Z,98196.81
2023-01-10T01:24:47.602Z,98197.16
2023-01-10T01:27:15.033Z,98203.38
2023-01-10T01:29:43.267Z,98201.00
2023-01-10T01:32:10.834Z,98208.72
2023-01-10T01:34:38.249Z,98200.13
2023-01-10T01:37:05.465Z,98204.69
2023-01-10T01:39:32.761Z,98208.59
2023-01-10T01:42:00.542Z,98212.88
2023-01-10T01:44:35.340Z,98203.53
2023-01-10T01:47:05.505Z,98201.00
2023-01-10T01:49:33.355Z,98206.66
2023-01-10T01:52:05.456Z,98204.34
2023-01-10T01:54:32.884Z,98201.47
2023-01-10T01:57:03.272Z,98212.66
2023-01-10T01:59:30.992Z,98211.78
2023-01-10T02:02:00.555Z,98218.44
2023-01-10T02:04:29.474Z,98217.53
2023-01-10T02:06:57.184Z,98232.69
2023-01-10T02:09:26.356Z,98233.59
2023-01-10T02:11:54.363Z,98233.31
2023-01-10T02:14:21.964Z,98230.63
2023-01-10T02:16:49.179Z,98231.69
2023-01-10T02:19:35.069Z,98234.25
2023-01-10T02:22:05.292Z,98240.84
2023-01-10T02:24:38.361Z,98236.66
2023-01-10T02:27:05.712Z,98229.47
2023-01-10T02:29:50.528Z,98231.41
2023-01-10T02:32:40.723Z,98224.03
2023-01-10T02:35:16.856Z,98222.41
2023-01-10T02:37:54.050Z,98228.88
2023-01-10T02:40:22.722Z,98223.63
2023-01-10T02:43:10.534Z,98226.03
2023-01-10T02:45:56.322Z,98234.78
2023-01-10T02:48:23.813Z,98231.47
2023-01-10T02:50:52.857Z,98226.13
2023-01-10T02:53:24.887Z,98222.91
2023-01-10T02:56:10.524Z,98224.38
2023-01-10T02:58:40.941Z,98224.78
2023-01-10T03:01:15.776Z,98229.97
2023-01-10T03:03:46.958Z,98237.47
2023-01-10T03:06:18.919Z,98240.97
2023-01-10T03:09:00.570Z,98243.25
2023-01-10T03:11:40.360Z,98244.22
2023-01-10T03:14:15.826Z,98245.53
2023-01-10T03:16:44.518Z,98250.44
2023-01-10T03:19:12.851Z,98245.81
2023-01-10T03:21:40.436Z,98243.13
2023-01-10T03:24:09.793Z,98243.66
2023-01-10T03:27:00.296Z,98248.50
2023-01-10T03:29:47.250Z,98243.09
2023-01-10T03:32:14.626Z,98257.13
2023-01-10T03:34:42.092Z,98251.91
2023-01-10T03:37:14.227Z,98253.94
2023-01-10T03:39:50.497Z,98258.44
2023-01-10T03:42:20.656Z,98255.09
2023-01-10T03:44:51.268Z,98252.66
2023-01-10T03:47:18.496Z,98254.47
2023-01-10T03:49:48.049Z,98264.34
2023-01-10T03:52:16.301Z,98258.38
2023-01-10T03:54:44.031Z,98266.31
2023-01-10T03:57:24.015Z,98264.78
2023-01-10T03:59:55.335Z,98263.47
2023-01-10T04:02:22.489Z,98270.53
2023-01-10T04:04:50.573Z,98277.63
2023-01-10T04:07:17.854Z,98277.56
2023-01-10T04:09:44.977Z,98277.09
2023-01-10T04:12:12.509Z,98278.78
2023-01-10T04:14:39.739Z,98281.78
2023-01-10T04:17:06.932Z,98280.84
2023-01-10T04:19:34.388Z,98285.28
2023-01-10T04:22:01.551Z,98273.63
2023-01-10T04:24:28.774Z,98264.91
2023-01-10T04:26:56.186Z,98254.25
2023-01-10T04:29:23.430Z,98254.72
2023-01-10T04:31:50.921Z,98244.06
2023-01-10T04:34:20.207Z,98253.94
2023-01-10T04:36:49.374Z,98263.87
2023-01-10T04:39:17.665Z,98254.41
2023-01-10T04:41:45.072Z,98270.06
2023-01-10T04:44:12.841Z,98269.91
2023-01-10T04:46:40.233Z,98275.22
2023-01-10T04:49:09.162Z,98287.03
2023-01-10T04:51:36.333Z,98293.03
2023-01-10T04:54:03.537Z,98291.25
2023-01-10T04:56:31.011Z,98304.28
2023-01-10T04:58:58.227Z,98311.28
2023-01-10T05:01:25.828Z,98319.66
2023-01-10T05:03:56.402Z,98310.53
2023-01-10T05:06:23.874Z,98326.75
2023-01-10T05:08:51.204Z,98325.44
2023-01-10T05:11:18.705Z,98335.84
2023-01-10T05:13:47.933Z,98336.56
2023-01-10T05:16:15.810Z,98345.66
2023-01-10T05:18:43.296Z,98345.69
2023-01-10T05:21:11.755Z,98359.56
2023-01-10T05:23:39.373Z,98372.59
2023-01-10T05:26:07.970Z,98358.66
2023-01-10T05:28:35.330Z,98358.56
2023-01-10T05:31:02.529Z,98359.94
2023-01-10T05:33:29.937Z,98363.03
2023-01-10T05:35:57.173Z,98355.22
2023-01-10T05:38:24.386Z,98350.09
2023-01-10T05:40:55.175Z,98354.59
2023-01-10T05:43:22.633Z,98360.50
2023-01-10T05:45:49.854Z,98363.09
2023-01-10T05:48:17.614Z,98358.75
2023-01-10T05:50:44.779Z,98358.84
2023-01-10T05:53:11.970Z,98367.50
2023-01-10T05:55:39.396Z,98361.72
2023-01-10T05:58:06.521Z,98373.94
2023-01-10T06:00:33.750Z,98384.75
2023-01-10T06:03:01.362Z,98380.28
2023-01-10T06:05:28.636Z,98388.56
2023-01-10T06:07:56.090Z,98399.72
2023-01-10T06:10:24.025Z,98404.44
2023-01-10T06:12:52.046Z,98402.19
2023-01-10T06:15:19.299Z,98397.47
2023-01-10T06:17:46.754Z,98412.09
2023-01-10T06:20:13.972Z,98415.47
2023-01-10T06:22:42.258Z,98421.75
2023-01-10T06:25:10.546Z,98431.44
2023-01-10T06:27:41.383Z,98431.16
2023-01-10T06:30:09.161Z,98431.66
2023-01-10T06:32:36.732Z,98440.75
2023-01-10T06:35:04.370Z,98451.56
2023-01-10T06:37:31.586Z,98439.78
2023-01-10T06:39:59.085Z,98450.62
2023-01-10T06:42:26.288Z,98446.06
2023-01-10T06:44:53.508Z,98446.75
2023-01-10T06:47:21.009Z,98444.53
2023-01-10T06:49:48.283Z,98444.09
2023-01-10T06:52:15.477Z,98444.44
2023-01-10T06:54:42.933Z,98456.19
2023-01-10T06:57:10.103Z,98456.28
2023-01-10T06:59:37.301Z,98475.63
2023-01-10T07:02:04.924Z,98477.28
2023-01-10T07:04:32.160Z,98484.84
2023-01-10T07:06:59.370Z,98491.09
2023-01-10T07:09:26.771Z,98496.56
2023-01-10T07:11:53.930Z,98505.28
2023-01-10T07:14:21.097Z,98511.47
2023-01-10T07:16:48.509Z,98511.03
2023-01-10T07:19:17.619Z,98518.50
2023-01-10T07:21:44.911Z,98527.03
2023-01-10T07:24:12.384Z,98535.03
2023-01-10T07:26:39.584Z,98536.81
2023-01-10T07:29:07.019Z,98543.28
2023-01-10T07:31:35.025Z,98556.19
2023-01-10T07:34:02.322Z,98556.19
2023-01-10T07:36:29.470Z,98556.84
2023-01-10T07:38:56.933Z,98553.66
2023-01-10T07:41:24.124Z,98560.66
2023-01-10T07:43:51.290Z,98560.84
2023-01-10T07:46:18.889Z,98561.78
2023-01-10T07:48:47.059Z,98572.09
2023-01-10T07:51:14.534Z,98583.37
2023-01-10T07:53:42.062Z,98597.56
2023-01-10T07:56:09.331Z,98596.78
2023-01-10T07:58:36.513Z,98598.16
2023-01-10T08:01:04.571Z,98609.09
2023-01-10T08:03:33.304Z,98620.81
2023-01-10T08:06:01.319Z,98619.84
2023-01-10T08:08:28.592Z,98624.53
2023-01-10T08:10:56.155Z,98621.84
2023-01-10T08:13:23.474Z,98632.53
2023-01-10T08:15:51.871Z,98635.34
2023-01-10T08:18:19.894Z,98646.53
2023-01-10T08:20:48.677Z,98641.81
2023-01-10T08:23:15.966Z,98661.41
2023-01-10T08:25:43.713Z,98670.81
2023-01-10T08:28:11.305Z,98679.03
2023-01-10T08:30:38.464Z,98686.88
2023-01-10T08:33:06.471Z,98696.75
2023-01-10T08:35:43.534Z,98696.31
2023-01-10T08:38:11.238Z,98691.25
2023-01-10T08:40:38.530Z,98699.91
2023-01-10T08:43:06.655Z,98706.34
2023-01-10T08:45:34.473Z,98701.47
2023-01-10T08:48:01.969Z,98704.59
2023-01-10T08:50:29.196Z,98707.88
2023-01-10T08:53:00.334Z,98724.34
2023-01-10T08:55:28.222Z,98719.03
2023-01-10T08:57:55.546Z,98721.37
2023-01-10T09:00:23.213Z,98729.88
2023-01-10T09:02:50.559Z,98736.44
2023-01-10T09:05:31.436Z,98742.44
2023-01-10T09:08:00.154Z,98748.69
2023-01-10T09:10:28.327Z,98757.88
2023-01-10T09:12:55.704Z,98771.19
2023-01-10T09:15:23.849Z,98771.00
2023-01-10T09:17:53.194Z,98770.88
2023-01-10T09:20:20.460Z,98775.31
2023-01-10T09:22:47.957Z,98782.22
2023-01-10T09:25:15.268Z,98784.16
2023-01-10T09:27:42.509Z,98783.50
2023-01-10T09:30:10.178Z,98789.37
2023-01-10T09:32:37.559Z,98798.47
2023-01-10T09:35:04.844Z,98802.88
2023-01-10T09:37:33.752Z,98821.38
2023-01-10T09:40:01.034Z,98818.38
2023-01-10T09:42:54.202Z,98830.09
2023-01-10T09:45:24.519Z,98836.78
2023-01-10T09:47:54.294Z,98842.25
2023-01-10T09:50:24.227Z,98849.34
2023-01-10T09:52:52.639Z,98850.22
2023-01-10T09:55:22.365Z,98851.81
2023-01-10T09:57:50.135Z,98854.94
2023-01-10T10:00:18.434Z,98864.50
2023-01-10T10:02:46.096Z,98872.03
2023-01-10T10:05:15.644Z,98865.16
2023-01-10T10:07:42.919Z,98866.66
2023-01-10T10:10:16.957Z,98878.44
2023-01-10T10:12:59.529Z,98862.94
2023-01-10T10:15:32.660Z,98860.16
2023-01-10T10:17:59.800Z,98873.09
2023-01-10T10:20:33.337Z,98872.41
2023-01-10T10:23:19.365Z,98877.41
2023-01-10T10:25:59.059Z,98875.91
2023-01-10T10:28:32.775Z,98878.34
2023-01-10T10:31:18.691Z,98882.06
2023-01-10T10:33:55.001Z,98879.09
2023-01-10T10:36:45.757Z,98880.63
2023-01-10T10:39:13.857Z,98891.53
2023-01-10T10:41:43.287Z,98895.34
2023-01-10T10:44:22.569Z,98897.78
2023-01-10T10:46:50.240Z,98912.91
2023-01-10T10:49:18.886Z,98913.00
2023-01-10T10:51:48.181Z,98912.06
2023-01-10T10:54:16.587Z,98916.88
2023-01-10T10:56:44.020Z,98924.22
2023-01-10T10:59:12.088Z,98924.19
2023-01-10T11:01:43.595Z,98929.13
2023-01-10T11:04:12.369Z,98930.59
2023-01-10T11:06:40.990Z,98935.09
2023-01-10T11:09:08.179Z,98940.31
2023-01-10T11:11:39.753Z,98944.00
2023-01-10T11:14:07.851Z,98940.28
2023-01-10T11:16:36.659Z,98946.06
2023-01-10T11:19:22.571Z,98955.56
2023-01-10T11:21:59.790Z,98954.34
2023-01-10T11:24:33.994Z,98968.28
2023-01-10T11:27:02.550Z,98972.81
2023-01-10T11:29:37.135Z,98975.69
2023-01-10T11:32:15.452Z,98984.63
2023-01-10T11:34:43.352Z,98989.19
2023-01-10T11:37:17.049Z,98987.44
2023-01-10T11:39:44.595Z,98998.09
2023-01-10T11:42:24.412Z,98997.94
2023-01-10T11:44:51.629Z,98987.22
2023-01-10T11:47:20.972Z,98990.25
2023-01-10T11:49:48.622Z,99003.97
2023-01-10T11:52:21.973Z,98998.53
2023-01-10T11:54:49.767Z,99013.78
2023-01-10T11:57:21.046Z,99001.50
2023-01-10T11:59:52.433Z,98999.34
2023-01-10T12:02:20.154Z,99010.53
2023-01-10T12:04:47.648Z,99008.88
2023-01-10T12:07:14.905Z,99018.59
2023-01-10T12:09:43.100Z,99025.59
2023-01-10T12:12:21.371Z,99024.69
2023-01-10T12:14:48.653Z,99028.78
2023-01-10T12:17:18.890Z,99037.69
2023-01-10T12:19:46.092Z,99036.84
2023-01-10T12:22:14.063Z,99044.72
2023-01-10T12:24:43.935Z,99051.62
2023-01-10T12:27:14.662Z,99041.69
2023-01-10T12:29:43.605Z,99051.00
2023-01-10T12:32:31.324Z,99058.63
2023-01-10T12:35:07.216Z,99064.13
2023-01-10T12:37:40.091Z,99073.94
2023-01-10T12:40:13.745Z,99064.66
2023-01-10T12:43:13.442Z,99061.59
2023-01-10T12:45:46.980Z,99073.47
2023-01-10T12:48:21.371Z,99080.97
2023-01-10T12:50:53.971Z,99095.72
2023-01-10T12:53:25.959Z,99098.47
2023-01-10T12:55:55.777Z,99097.75
2023-01-10T12:58:26.080Z,99106.38
2023-01-10T13:00:54.134Z,99099.56
2023-01-10T13:03:23.231Z,99110.34
2023-01-10T13:05:52.098Z,99095.13
2023-01-10T13:08:21.092Z,99096.50
2023-01-10T13:10:50.339Z,99104.59
2023-01-10T13:13:36.747Z,99112.19
2023-01-10T13:16:10.431Z,99105.25
2023-01-10T13:18:37.656Z,99108.38
2023-01-10T13:21:09.117Z,99119.81
2023-01-10T13:23:39.780Z,99114.78
2023-01-10T13:26:09.217Z,99121.75
2023-01-10T13:28:37.668Z,99134.50
2023-01-10T13:31:07.125Z,99137.59
2023-01-10T13:33:40.341Z,99149.19
2023-01-10T13:36:11.414Z,99153.41
2023-01-10T13:38:44.601Z,99151.91
2023-01-10T13:41:30.727Z,99164.72
2023-01-10T13:44:06.146Z,99175.41
2023-01-10T13:46:35.195Z,99176.75
2023-01-10T13:49:03.602Z,99183.25
2023-01-10T13:51:31.207Z,99184.38
2023-01-10T13:53:59.493Z,99190.50
2023-01-10T13:56:36.262Z,99192.87
2023-01-10T13:59:23.356Z,99198.63
2023-01-10T14:02:10.638Z,99195.22
2023-01-10T14:04:39.538Z,99194.81
2023-01-10T14:07:13.594Z,99194.41
2023-01-10T14:09:47.909Z,99212.19
2023-01-10T14:12:35.614Z,99206.31
2023-01-10T14:15:06.104Z,99217.31
2023-01-10T14:17:34.311Z,99214.22
2023-01-10T14:20:03.603Z,99224.03
2023-01-10T14:22:32.275Z,99216.78
2023-01-10T14:25:00.118Z,99216.75
2023-01-10T14:27:28.416Z,99224.53
2023-01-10T14:29:59.309Z,99238.75
2023-01-10T14:32:38.383Z,99237.53
2023-01-10T14:35:07.499Z,99244.81
2023-01-10T14:37:39.963Z,99252.63
2023-01-10T14:40:12.561Z,99264.75
2023-01-10T14:42:39.770Z,99272.13
2023-01-10T14:45:16.252Z,99272.84
2023-01-10T14:47:43.692Z,99278.53
2023-01-10T14:50:28.073Z,99290.97
2023-01-10T14:52:56.315Z,99289.12
2023-01-10T14:55:23.607Z,99291.75
2023-01-10T14:57:57.533Z,99296.34
2023-01-10T15:00:28.195Z,99292.03
2023-01-10T15:02:55.668Z,99292.50
2023-01-10T15:05:26.874Z,99298.13
2023-01-10T15:07:54.726Z,99302.88
2023-01-10T15:10:23.440Z,99304.06
2023-01-10T15:12:54.977Z,99312.34
2023-01-10T15:15:24.213Z,99311.72
2023-01-10T15:17:51.352Z,99313.63
2023-01-10T15:20:18.699Z,99317.81
2023-01-10T15:22:47.494Z,99324.97
2023-01-10T15:25:17.713Z,99331.63
2023-01-10T15:27:45.413Z,99327.59
2023-01-10T15:30:17.631Z,99345.16
2023-01-10T15:32:45.399Z,99337.75
2023-01-10T15:35:14.296Z,99353.91
2023-01-10T15:37:49.811Z,99355.38
2023-01-10T15:40:24.340Z,99347.22
2023-01-10T15:42:51.948Z,99352.53
2023-01-10T15:45:27.740Z,99358.03
2023-01-10T15:48:03.037Z,99366.63
2023-01-10T15:50:40.431Z,99359.00
2023-01-10T15:53:09.549Z,99371.00
2023-01-10T15:55:50.817Z,99380.12
2023-01-10T15:58:30.933Z,99378.94
2023-01-10T16:00:59.272Z,99374.13
2023-01-10T16:03:28.811Z,99371.91
2023-01-10T16:05:56.708Z,99381.47
2023-01-10T16:08:25.890Z,99384.03
2023-01-10T16:10:57.844Z,99386.09
2023-01-10T16:13:28.347Z,99392.50
2023-01-10T16:15:56.264Z,99389.72
2023-01-10T16:18:23.811Z,99402.06
2023-01-10T16:20:51.690Z,99399.09
2023-01-10T16:23:19.703Z,99404.75
2023-01-10T16:25:48.090Z,99412.44
2023-01-10T16:28:15.969Z,99410.28
2023-01-10T16:30:46.622Z,99412.31
2023-01-10T16:33:16.325Z,99413.38
2023-01-10T16:35:44.799Z,99410.31
2023-01-10T16:38:12.403Z,99421.16
2023-01-10T16:40:43.854Z,99425.44
2023-01-10T16:43:21.760Z,99433.44
2023-01-10T16:45:50.239Z,99428.84
2023-01-10T16:48:18.193Z,99435.88
2023-01-10T16:50:45.931Z,99439.50
2023-01-10T16:53:14.204Z,99441.91
2023-01-10T16:55:45.985Z,99447.28
2023-01-10T16:58:13.552Z,99450.88
2023-01-10T17:00:41.558Z,99458.91
2023-01-10T17:03:11.475Z,99464.50
2023-01-10T17:05:38.943Z,99462.44
2023-01-10T17:08:06.251Z,99469.25
2023-01-10T17:10:34.698Z,99469.25
2023-01-10T17:13:04.193Z,99478.62
2023-01-10T17:15:31.623Z,99480.03
2023-01-10T17:17:59.140Z,99482.22
2023-01-10T17:20:26.303Z,99483.34
2023-01-10T17:22:53.451Z,99499.91
2023-01-10T17:25:20.981Z,99495.28
2023-01-10T17:27:48.183Z,99501.44
2023-01-10T17:30:15.652Z,99501.47
2023-01-10T17:32:43.203Z,99509.16
2023-01-10T17:35:10.419Z,99506.31
2023-01-10T17:37:38.222Z,99510.91
2023-01-10T17:40:05.919Z,99521.31
2023-01-10T17:42:33.098Z,99520.84
2023-01-10T17:45:00.374Z,99522.94
2023-01-10T17:47:27.916Z,99525.19
2023-01-10T17:49:55.181Z,99531.78
2023-01-10T17:52:22.505Z,99528.72
2023-01-10T17:54:50.042Z,99524.78
2023-01-10T17:57:17.276Z,99520.56
2023-01-10T17:59:44.562Z,99533.94
2023-01-10T18:02:16.619Z,99528.97
2023-01-10T18:04:44.535Z,99524.31
2023-01-10T18:07:13.096Z,99535.28
2023-01-10T18:09:40.458Z,99541.28
2023-01-10T18:12:08.045Z,99541.41
2023-01-10T18:14:38.147Z,99544.31
2023-01-10T18:17:06.864Z,99543.31
2023-01-10T18:19:34.997Z,99547.19
2023-01-10T18:22:22.873Z,99544.03
2023-01-10T18:24:53.880Z,99540.31
2023-01-10T18:27:21.798Z,99552.00
2023-01-10T18:29:49.571Z,99532.44
2023-01-10T18:32:17.442Z,99548.34
2023-01-10T18:34:44.677Z,99554.59
2023-01-10T18:37:11.839Z,99558.78
2023-01-10T18:39:39.404Z,99560.34
2023-01-10T18:42:06.712Z,99563.91
2023-01-10T18:44:34.019Z,99562.56
2023-01-10T18:47:01.464Z,99567.69
2023-01-10T18:49:28.930Z,99570.12
2023-01-10T18:51:56.372Z,99569.91
2023-01-10T18:54:23.980Z,99572.47
2023-01-10T18:56:51.224Z,99577.78
2023-01-10T18:59:19.411Z,99578.84
2023-01-10T19:01:46.856Z,99575.41
2023-01-10T19:04:14.096Z,99572.00
2023-01-10T19:06:44.247Z,99580.72
2023-01-10T19:09:11.856Z,99577.66
2023-01-10T19:11:39.037Z,99582.72
2023-01-10T19:14:06.344Z,99585.53
2023-01-10T19:16:33.789Z,99580.91
2023-01-10T19:19:02.897Z,99585.03
2023-01-10T19:21:31.667Z,99584.03
2023-01-10T19:24:00.692Z,99579.31
2023-01-10T19:26:28.288Z,99579.56
2023-01-10T19:28:55.534Z,99577.53
2023-01-10T19:31:24.148Z,99585.00
2023-01-10T19:33:51.506Z,99586.41
2023-01-10T19:36:19.349Z,99592.09
2023-01-10T19:38:46.797Z,99598.28
2023-01-10T19:41:14.443Z,99597.87
2023-01-10T19:43:41.807Z,99606.88
2023-01-10T19:46:10.310Z,99606.91
2023-01-10T19:48:40.788Z,99604.72
2023-01-10T19:51:09.222Z,99615.03
2023-01-10T19:53:37.307Z,99612.06
2023-01-10T19:56:05.462Z,99621.47
2023-01-10T19:58:32.983Z,99617.69
2023-01-10T20:01:10.411Z,99630.63
2023-01-10T20:03:38.977Z,99621.91
2023-01-10T20:06:06.365Z,99620.59
2023-01-10T20:08:33.912Z,99634.06
2023-01-10T20:11:05.691Z,99639.81
2023-01-10T20:13:33.749Z,99638.31
2023-01-10T20:16:01.127Z,99638.75
2023-01-10T20:18:28.680Z,99635.03
2023-01-10T20:20:55.892Z,99639.06
2023-01-10T20:23:23.580Z,99631.59
2023-01-10T20:25:58.146Z,99638.62
2023-01-10T20:28:26.459Z,99643.22
2023-01-10T20:30:53.991Z,99645.97
2023-01-10T20:33:26.519Z,99645.22
2023-01-10T20:35:54.836Z,99643.78
2023-01-10T20:38:22.070Z,99646.53
2023-01-10T20:40:49.488Z,99657.53
2023-01-10T20:43:17.795Z,99664.75
2023-01-10T20:45:45.094Z,99654.81
2023-01-10T20:48:12.329Z,99661.97
2023-01-10T20:50:43.596Z,99664.06
2023-01-10T20:53:11.105Z,99670.38
2023-01-10T20:55:38.261Z,99678.59
2023-01-10T20:58:05.920Z,99692.41
2023-01-10T21:00:33.789Z,99688.13
2023-01-10T21:03:01.163Z,99687.28
2023-01-10T21:05:28.712Z,99684.59
2023-01-10T21:07:55.942Z,99680.09
2023-01-10T21:10:23.176Z,99676.41
2023-01-10T21:12:50.873Z,99684.19
2023-01-10T21:15:18.022Z,99672.31
2023-01-10T21:17:45.321Z,99666.63
2023-01-10T21:20:13.675Z,99675.63
2023-01-10T21:22:40.880Z,99666.13
2023-01-10T21:25:08.474Z,99672.97
2023-01-10T21:27:35.925Z,99662.41
2023-01-10T21:30:06.157Z,99665.09
2023-01-10T21:32:34.054Z,99670.06
2023-01-10T21:35:01.541Z,99667.44
2023-01-10T21:37:28.694Z,99665.22
2023-01-10T21:39:56.176Z,99677.59
2023-01-10T21:42:37.566Z,99671.81
2023-01-10T21:45:06.093Z,99669.72
2023-01-10T21:47:35.658Z,99673.03
2023-01-10T21:50:03.408Z,99673.69
2023-01-10T21:52:30.534Z,99663.41
2023-01-10T21:54:58.011Z,99672.09
2023-01-10T21:57:25.899Z,99668.22
2023-01-10T21:59:53.134Z,99678.09
2023-01-10T22:02:21.187Z,99675.91
2023-01-10T22:04:50.670Z,99672.72
2023-01-10T22:07:18.483Z,99676.59
2023-01-10T22:09:45.756Z,99662.84
2023-01-10T22:12:14.144Z,99665.97
2023-01-10T22:14:41.422Z,99665.03
2023-01-10T22:17:08.610Z,99663.78
2023-01-10T22:19:36.106Z,99667.59
2023-01-10T22:22:03.374Z,99663.97
2023-01-10T22:24:30.839Z,99668.16
2023-01-10T22:26:58.445Z,99670.25
2023-01-10T22:29:26.408Z,99667.50
2023-01-10T22:31:53.853Z,99657.97
2023-01-10T22:34:21.470Z,99661.38
2023-01-10T22:36:48.759Z,99665.19
2023-01-10T22:39:15.915Z,99672.25
2023-01-10T22:41:43.733Z,99664.81
2023-01-10T22:44:16.530Z,99665.44
2023-01-10T22:46:44.007Z,99672.91
2023-01-10T22:49:11.188Z,99663.19
2023-01-10T22:51:38.359Z,99676.59
2023-01-10T22:54:05.860Z,99673.34
2023-01-10T22:56:33.016Z,99673.00
2023-01-10T22:59:00.308Z,99676.13
2023-01-10T23:01:27.810Z,99677.84
2023-01-10T23:03:54.910Z,99676.25
2023-01-10T23:06:22.108Z,99681.84
2023-01-10T23:08:50.471Z,99674.97
2023-01-10T23:11:18.433Z,99672.38
2023-01-10T23:13:46.321Z,99676.53
2023-01-10T23:16:15.133Z,99684.72
2023-01-10T23:18:42.353Z,99687.78
2023-01-10T23:21:09.725Z,99677.38
2023-01-10T23:23:37.084Z,99673.47
2023-01-10T23:26:05.430Z,99683.69
2023-01-10T23:28:36.354Z,99675.63
2023-01-10T23:31:04.043Z,99682.34
2023-01-10T23:33:31.481Z,99681.75
2023-01-10T23:35:58.850Z,99691.00
2023-01-10T23:38:26.447Z,99680.03
2023-01-10T23:40:53.893Z,99688.41
2023-01-10T23:43:21.386Z,99680.00
2023-01-10T23:45:48.902Z,99675.56
2023-01-10T23:48:16.293Z,99685.81
2023-01-10T23:50:43.522Z,99680.13
2023-01-10T23:53:11.000Z,99670.63
2023-01-10T23:55:38.108Z,99676.88
2023-01-10T23:58:05.275Z,99667.63
